createdAt,value
2023-02-19T00:00:36.605Z,21.08
2023-02-19T00:03:04.412Z,20.80
2023-02-19T00:05:35.246Z,22.25
2023-02-19T00:08:05.047Z,19.50
2023-02-19T00:10:35.717Z,16.35
2023-02-19T00:13:03.805Z,17.80
2023-02-19T00:15:34.912Z,15.48
2023-02-19T00:18:02.706Z,14.82
2023-02-19T00:20:35.873Z,14.38
2023-02-19T00:23:06.605Z,12.70
2023-02-19T00:25:38.189Z,14.57
2023-02-19T00:28:13.034Z,13.27
2023-02-19T00:30:43.275Z,13.40
2023-02-19T00:33:17.353Z,12.52
2023-02-19T00:35:45.453Z,13.07
2023-02-19T00:38:17.506Z,12.40
2023-02-19T00:43:15.364Z,13.38
2023-02-19T00:45:45.574Z,13.35
2023-02-19T00:48:16.006Z,13.73
2023-02-19T00:50:44.513Z,11.98
2023-02-19T00:53:13.110Z,12.70
2023-02-19T00:55:41.064Z,12.75
2023-02-19T00:58:08.856Z,13.38
2023-02-19T01:00:36.753Z,13.75
2023-02-19T01:03:04.526Z,13.43
2023-02-19T01:05:32.103Z,12.77
2023-02-19T01:07:59.833Z,11.30
2023-02-19T01:10:27.572Z,12.88
2023-02-19T01:12:57.886Z,12.57
2023-02-19T01:15:25.597Z,12.30
2023-02-19T01:17:54.166Z,11.55
2023-02-19T01:20:21.795Z,11.75
2023-02-19T01:22:49.448Z,10.90
2023-02-19T01:25:17.153Z,11.13
2023-02-19T01:27:53.521Z,10.48
2023-02-19T01:30:23.660Z,10.30
2023-02-19T01:32:51.621Z,10.60
2023-02-19T01:35:19.830Z,10.55
2023-02-19T01:37:47.392Z,11.02
2023-02-19T01:40:15.200Z,11.93
2023-02-19T01:42:56.120Z,10.10
2023-02-19T01:45:31.878Z,10.43
2023-02-19T01:48:12.332Z,10.00
2023-02-19T01:50:53.854Z,9.30
2023-02-19T01:53:32.028Z,9.55
2023-02-19T01:56:04.968Z,9.02
2023-02-19T01:58:39.774Z,8.52
2023-02-19T02:01:09.571Z,8.35
2023-02-19T02:03:41.958Z,8.88
2023-02-19T02:06:50.423Z,9.30
2023-02-19T02:09:45.818Z,9.40
2023-02-19T02:12:16.619Z,8.93
2023-02-19T02:14:48.952Z,8.23
2023-02-19T02:17:26.541Z,9.27
2023-02-19T02:20:44.935Z,9.40
2023-02-19T02:24:08.749Z,8.82
2023-02-19T02:27:06.947Z,8.85
2023-02-19T02:30:10.083Z,8.93
2023-02-19T02:32:56.505Z,8.75
2023-02-19T02:35:36.581Z,7.65
2023-02-19T02:38:11.181Z,9.45
2023-02-19T02:40:45.010Z,9.15
2023-02-19T02:43:15.976Z,7.95
2023-02-19T02:45:44.504Z,9.55
2023-02-19T02:49:00.558Z,8.77
2023-02-19T02:51:43.930Z,8.43
2023-02-19T02:54:52.522Z,9.07
2023-02-19T02:57:22.843Z,8.65
2023-02-19T02:59:55.323Z,10.50
2023-02-19T03:05:28.437Z,9.45
2023-02-19T03:08:17.581Z,9.90
2023-02-19T03:10:59.449Z,8.70
2023-02-19T03:13:54.604Z,8.00
2023-02-19T03:16:52.363Z,8.70
2023-02-19T03:19:25.543Z,8.00
2023-02-19T03:22:10.802Z,6.85
2023-02-19T03:25:07.950Z,8.32
2023-02-19T03:27:41.644Z,7.85
2023-02-19T03:30:19.116Z,7.28
2023-02-19T03:32:57.252Z,6.70
2023-02-19T03:35:31.916Z,6.78
2023-02-19T03:38:13.251Z,6.60
2023-02-19T03:40:58.858Z,6.53
2023-02-19T03:43:50.894Z,6.40
2023-02-19T03:46:43.296Z,6.13
2023-02-19T03:49:23.865Z,5.13
2023-02-19T03:52:09.660Z,5.68
2023-02-19T03:55:02.099Z,6.35
2023-02-19T03:58:24.433Z,6.15
2023-02-19T04:01:03.536Z,6.47
2023-02-19T04:03:46.846Z,6.30
2023-02-19T04:06:24.902Z,5.63
2023-02-19T04:08:58.717Z,6.07
2023-02-19T04:11:30.495Z,6.00
2023-02-19T04:14:18.003Z,5.80
2023-02-19T04:16:53.125Z,6.25
2023-02-19T04:19:25.956Z,6.32
2023-02-19T04:21:56.665Z,5.80
2023-02-19T04:24:37.366Z,6.60
2023-02-19T04:27:07.182Z,6.80
2023-02-19T04:29:34.680Z,5.72
2023-02-19T04:32:02.462Z,5.50
2023-02-19T04:34:29.929Z,6.28
2023-02-19T04:36:57.473Z,6.72
2023-02-19T04:39:24.952Z,5.88
2023-02-19T04:41:52.391Z,6.43
2023-02-19T04:44:20.382Z,6.32
2023-02-19T04:46:48.164Z,6.68
2023-02-19T04:49:15.645Z,5.80
2023-02-19T04:51:43.083Z,5.78
2023-02-19T04:54:10.546Z,6.13
2023-02-19T04:56:38.018Z,5.50
2023-02-19T04:59:05.847Z,6.00
2023-02-19T05:01:33.353Z,5.38
2023-02-19T05:04:00.919Z,5.47
2023-02-19T05:06:28.569Z,5.30
2023-02-19T05:08:56.089Z,5.68
2023-02-19T05:11:26.534Z,6.10
2023-02-19T05:13:56.308Z,5.75
2023-02-19T05:16:23.890Z,4.60
2023-02-19T05:18:51.322Z,5.05
2023-02-19T05:21:19.008Z,5.10
2023-02-19T05:23:46.436Z,5.10
2023-02-19T05:26:19.974Z,5.55
2023-02-19T05:28:53.211Z,5.45
2023-02-19T05:31:21.538Z,5.95
2023-02-19T05:33:51.080Z,5.47
2023-02-19T05:36:24.137Z,6.03
2023-02-19T05:38:57.099Z,5.20
2023-02-19T05:41:28.051Z,5.55
2023-02-19T05:43:57.416Z,7.03
2023-02-19T05:46:31.982Z,6.20
2023-02-19T05:48:59.715Z,6.88
2023-02-19T05:51:27.889Z,6.30
2023-02-19T05:53:56.997Z,6.95
2023-02-19T05:56:40.600Z,6.57
2023-02-19T05:59:15.877Z,6.07
2023-02-19T06:01:44.171Z,6.05
2023-02-19T06:04:12.981Z,5.90
2023-02-19T06:06:42.055Z,5.40
2023-02-19T06:09:11.011Z,5.40
2023-02-19T06:11:39.185Z,5.68
2023-02-19T06:14:07.304Z,5.75
2023-02-19T06:16:34.907Z,5.78
2023-02-19T06:19:04.099Z,5.80
2023-02-19T06:21:31.816Z,6.50
2023-02-19T06:23:59.370Z,6.00
2023-02-19T06:26:26.819Z,7.20
2023-02-19T06:28:54.669Z,6.88
2023-02-19T06:31:23.031Z,6.13
2023-02-19T06:33:50.779Z,5.75
2023-02-19T06:36:21.419Z,6.90
2023-02-19T06:38:49.030Z,6.82
2023-02-19T06:41:17.073Z,8.05
2023-02-19T06:43:44.704Z,8.05
2023-02-19T06:46:13.451Z,7.50
2023-02-19T06:48:44.887Z,7.53
2023-02-19T06:51:19.455Z,8.18
2023-02-19T06:53:46.921Z,8.20
2023-02-19T06:56:29.591Z,8.10
2023-02-19T06:59:01.958Z,8.13
2023-02-19T07:01:32.526Z,8.18
2023-02-19T07:04:00.568Z,7.43
2023-02-19T07:06:28.966Z,8.63
2023-02-19T07:08:58.944Z,7.60
2023-02-19T07:11:30.848Z,7.57
2023-02-19T07:14:00.661Z,7.93
2023-02-19T07:16:29.069Z,7.97
2023-02-19T07:18:58.483Z,8.00
2023-02-19T07:21:28.007Z,7.90
2023-02-19T07:23:56.421Z,7.35
2023-02-19T07:26:24.556Z,8.00
2023-02-19T07:28:52.431Z,8.35
2023-02-19T07:31:23.369Z,7.60
2023-02-19T07:33:52.738Z,7.78
2023-02-19T07:36:22.778Z,7.70
2023-02-19T07:38:58.019Z,7.95
2023-02-19T07:41:27.267Z,7.00
2023-02-19T07:43:58.226Z,7.15
2023-02-19T07:46:26.021Z,8.63
2023-02-19T07:48:53.752Z,7.85
2023-02-19T07:51:22.192Z,7.18
2023-02-19T07:54:04.732Z,7.78
2023-02-19T07:56:32.173Z,7.80
2023-02-19T07:59:00.753Z,8.32
2023-02-19T08:01:46.774Z,7.55
2023-02-19T08:04:15.664Z,7.88
2023-02-19T08:06:43.463Z,8.05
2023-02-19T08:09:11.560Z,7.95
2023-02-19T08:11:57.719Z,7.35
2023-02-19T08:14:27.351Z,6.63
2023-02-19T08:16:56.119Z,7.20
2023-02-19T08:19:24.117Z,7.95
2023-02-19T08:21:51.756Z,7.38
2023-02-19T08:24:19.362Z,8.38
2023-02-19T08:26:46.881Z,7.72
2023-02-19T08:29:14.362Z,8.15
2023-02-19T08:31:42.007Z,8.13
2023-02-19T08:34:09.501Z,7.57
2023-02-19T08:36:38.274Z,8.20
2023-02-19T08:39:05.753Z,8.70
2023-02-19T08:41:33.249Z,7.93
2023-02-19T08:44:00.738Z,8.80
2023-02-19T08:46:28.286Z,8.68
2023-02-19T08:48:55.815Z,8.80
2023-02-19T08:51:23.288Z,8.77
2023-02-19T08:53:50.727Z,8.85
2023-02-19T08:56:18.376Z,8.98
2023-02-19T08:58:45.880Z,7.97
2023-02-19T09:01:18.876Z,8.02
2023-02-19T09:03:46.549Z,6.80
2023-02-19T09:06:20.170Z,8.35
2023-02-19T09:08:47.862Z,7.32
2023-02-19T09:11:15.822Z,7.45
2023-02-19T09:13:43.858Z,8.23
2023-02-19T09:16:12.150Z,8.38
2023-02-19T09:18:40.047Z,8.23
2023-02-19T09:21:07.535Z,7.45
2023-02-19T09:23:36.858Z,8.25
2023-02-19T09:26:10.125Z,7.32
2023-02-19T09:28:39.694Z,7.68
2023-02-19T09:31:16.223Z,6.90
2023-02-19T09:33:48.749Z,6.72
2023-02-19T09:36:18.637Z,7.15
2023-02-19T09:38:46.325Z,6.35
2023-02-19T09:41:35.482Z,6.45
2023-02-19T09:44:07.310Z,5.38
2023-02-19T09:46:49.973Z,5.28
2023-02-19T09:49:30.920Z,4.63
2023-02-19T09:52:08.538Z,4.60
2023-02-19T09:54:39.092Z,4.82
2023-02-19T09:57:16.378Z,5.05
2023-02-19T10:00:11.830Z,4.82
2023-02-19T10:02:39.375Z,4.57
2023-02-19T10:05:14.417Z,3.67
2023-02-19T10:07:47.415Z,4.50
2023-02-19T10:10:14.757Z,4.93
2023-02-19T10:12:53.955Z,5.63
2023-02-19T10:15:41.839Z,5.85
2023-02-19T10:18:11.164Z,6.00
2023-02-19T10:20:40.172Z,6.55
2023-02-19T10:23:15.726Z,6.30
2023-02-19T10:28:40.722Z,7.05
2023-02-19T10:31:22.117Z,6.60
2023-02-19T10:34:01.986Z,6.95
2023-02-19T10:36:37.629Z,6.85
2023-02-19T10:39:42.313Z,7.00
2023-02-19T10:42:23.288Z,5.32
2023-02-19T10:45:01.919Z,5.78
2023-02-19T10:47:33.235Z,6.00
2023-02-19T10:50:04.140Z,5.00
2023-02-19T10:52:36.649Z,4.82
2023-02-19T10:55:19.456Z,4.50
2023-02-19T10:57:47.133Z,4.32
2023-02-19T11:00:30.451Z,4.85
2023-02-19T11:03:21.410Z,4.30
2023-02-19T11:06:03.068Z,4.57
2023-02-19T11:08:52.329Z,4.25
2023-02-19T11:11:30.574Z,4.80
2023-02-19T11:14:05.127Z,4.47
2023-02-19T11:16:47.745Z,4.35
2023-02-19T11:19:48.723Z,4.15
2023-02-19T11:22:46.861Z,4.40
2023-02-19T11:25:17.681Z,4.57
2023-02-19T11:28:24.332Z,3.90
2023-02-19T11:30:52.472Z,4.97
2023-02-19T11:33:29.909Z,4.70
2023-02-19T11:36:15.684Z,5.22
2023-02-19T11:38:43.781Z,4.38
2023-02-19T11:41:24.140Z,4.18
2023-02-19T11:44:04.240Z,4.68
2023-02-19T11:47:04.513Z,4.70
2023-02-19T11:49:55.738Z,4.70
2023-02-19T11:52:44.488Z,4.70
2023-02-19T11:55:32.521Z,4.53
2023-02-19T11:58:39.527Z,4.63
2023-02-19T12:01:32.288Z,3.95
2023-02-19T12:05:01.853Z,3.60
2023-02-19T12:08:21.271Z,3.33
2023-02-19T12:11:21.176Z,3.28
2023-02-19T12:14:16.824Z,3.72
2023-02-19T12:17:33.743Z,3.33
2023-02-19T12:20:18.580Z,3.60
2023-02-19T12:23:24.024Z,3.47
2023-02-19T12:26:03.301Z,3.38
2023-02-19T12:29:13.925Z,3.25
2023-02-19T12:32:06.222Z,3.30
2023-02-19T12:35:01.307Z,3.75
2023-02-19T12:37:50.065Z,3.20
2023-02-19T12:40:26.075Z,3.05
2023-02-19T12:43:19.648Z,3.47
2023-02-19T12:46:08.565Z,3.30
2023-02-19T12:48:39.779Z,2.85
2023-02-19T12:51:21.293Z,2.92
2023-02-19T12:54:06.008Z,3.20
2023-02-19T12:56:41.906Z,3.05
2023-02-19T12:59:28.170Z,3.60
2023-02-19T13:02:10.913Z,3.58
2023-02-19T13:05:11.045Z,3.45
2023-02-19T13:08:00.159Z,3.25
2023-02-19T13:10:37.712Z,3.30
2023-02-19T13:13:17.644Z,3.45
2023-02-19T13:15:56.808Z,3.42
2023-02-19T13:18:42.844Z,4.03
2023-02-19T13:21:35.320Z,3.75
2023-02-19T13:24:10.002Z,4.10
2023-02-19T13:26:49.200Z,3.88
2023-02-19T13:29:51.400Z,3.80
2023-02-19T13:32:55.611Z,4.32
2023-02-19T13:35:41.903Z,2.90
2023-02-19T13:38:13.113Z,1.98
2023-02-19T13:41:00.274Z,1.42
2023-02-19T13:43:38.912Z,1.20
2023-02-19T13:46:16.341Z,1.48
2023-02-19T13:48:44.695Z,1.27
2023-02-19T13:51:24.675Z,1.00
2023-02-19T13:53:52.180Z,1.02
2023-02-19T13:56:34.601Z,1.30
2023-02-19T13:59:11.046Z,1.40
2023-02-19T14:01:58.794Z,1.50
2023-02-19T14:04:50.283Z,1.50
2023-02-19T14:07:17.693Z,1.33
2023-02-19T14:09:47.564Z,1.52
2023-02-19T14:12:16.038Z,1.60
2023-02-19T14:14:56.840Z,1.67
2023-02-19T14:17:34.923Z,1.33
2023-02-19T14:20:17.888Z,1.80
2023-02-19T14:22:57.694Z,1.98
2023-02-19T14:25:31.229Z,2.25
2023-02-19T14:28:04.664Z,2.75
2023-02-19T14:30:40.683Z,3.30
2023-02-19T14:33:11.426Z,3.10
2023-02-19T14:35:44.022Z,4.63
2023-02-19T14:38:27.581Z,6.05
2023-02-19T14:40:56.409Z,6.20
2023-02-19T14:43:28.141Z,5.57
2023-02-19T14:48:39.541Z,5.95
2023-02-19T14:51:31.724Z,4.97
2023-02-19T14:54:17.591Z,4.70
2023-02-19T14:56:52.752Z,4.93
2023-02-19T14:59:20.309Z,4.45
2023-02-19T15:02:02.816Z,4.03
2023-02-19T15:04:37.487Z,4.03
2023-02-19T15:07:10.584Z,3.78
2023-02-19T15:09:45.339Z,4.40
2023-02-19T15:12:25.382Z,3.50
2023-02-19T15:15:00.096Z,2.88
2023-02-19T15:17:39.877Z,2.97
2023-02-19T15:20:17.168Z,2.53
2023-02-19T15:22:46.311Z,3.00
2023-02-19T15:25:21.097Z,3.05
2023-02-19T15:27:50.225Z,3.30
2023-02-19T15:30:29.483Z,3.63
2023-02-19T15:33:00.207Z,3.60
2023-02-19T15:35:30.339Z,3.90
2023-02-19T15:37:58.044Z,3.20
2023-02-19T15:40:31.049Z,3.00
2023-02-19T15:43:00.769Z,3.40
2023-02-19T15:45:36.492Z,3.70
2023-02-19T15:48:18.356Z,4.05
2023-02-19T15:53:30.664Z,4.70
2023-02-19T15:56:04.770Z,4.75
2023-02-19T15:58:45.626Z,5.10
2023-02-19T16:01:25.288Z,5.18
2023-02-19T16:03:54.313Z,6.13
2023-02-19T16:06:24.807Z,4.85
2023-02-19T16:08:52.248Z,5.20
2023-02-19T16:11:22.610Z,6.00
2023-02-19T16:14:13.341Z,4.82
2023-02-19T16:16:43.732Z,4.28
2023-02-19T16:19:11.760Z,3.67
2023-02-19T16:21:43.535Z,3.17
2023-02-19T16:26:46.002Z,3.15
2023-02-19T16:29:22.412Z,3.33
2023-02-19T16:32:03.420Z,3.75
2023-02-19T16:34:43.521Z,3.90
2023-02-19T16:37:41.204Z,3.85
2023-02-19T16:40:08.808Z,3.45
2023-02-19T16:42:58.153Z,4.05
2023-02-19T16:45:27.483Z,3.83
2023-02-19T16:47:55.253Z,3.95
2023-02-19T16:50:26.918Z,3.80
2023-02-19T16:55:29.369Z,4.32
2023-02-19T16:57:57.042Z,4.05
2023-02-19T17:00:28.506Z,4.07
2023-02-19T17:03:02.488Z,4.38
2023-02-19T17:05:32.544Z,4.10
2023-02-19T17:08:00.172Z,4.63
2023-02-19T17:10:28.599Z,4.18
2023-02-19T17:12:56.433Z,4.43
2023-02-19T17:15:23.998Z,4.22
2023-02-19T17:17:51.601Z,4.00
2023-02-19T17:20:27.601Z,4.72
2023-02-19T17:22:55.961Z,4.53
2023-02-19T17:25:23.662Z,4.70
2023-02-19T17:27:51.266Z,4.35
2023-02-19T17:30:27.886Z,5.00
2023-02-19T17:32:55.540Z,5.10
2023-02-19T17:35:23.629Z,5.38
2023-02-19T17:37:53.299Z,5.10
2023-02-19T17:40:33.729Z,5.20
2023-02-19T17:43:02.108Z,5.40
2023-02-19T17:45:30.307Z,5.68
2023-02-19T17:47:57.909Z,5.55
2023-02-19T17:50:32.700Z,5.72
2023-02-19T17:53:00.413Z,5.68
2023-02-19T17:55:27.956Z,6.18
2023-02-19T17:57:55.604Z,5.82
2023-02-19T18:00:33.657Z,6.32
2023-02-19T18:03:04.451Z,6.40
2023-02-19T18:05:31.946Z,6.53
2023-02-19T18:07:59.954Z,6.55
2023-02-19T18:10:27.504Z,5.38
2023-02-19T18:12:55.089Z,5.22
2023-02-19T18:15:28.800Z,5.78
2023-02-19T18:17:58.316Z,5.10
2023-02-19T18:20:28.785Z,5.65
2023-02-19T18:22:57.080Z,6.05
2023-02-19T18:25:25.125Z,5.88
2023-02-19T18:27:53.586Z,5.25
2023-02-19T18:30:23.017Z,5.20
2023-02-19T18:32:51.648Z,5.22
2023-02-19T18:35:20.934Z,4.88
2023-02-19T18:37:54.101Z,4.78
2023-02-19T18:40:25.906Z,4.65
2023-02-19T18:42:54.443Z,4.53
2023-02-19T18:45:22.509Z,4.00
2023-02-19T18:47:50.887Z,4.10
2023-02-19T18:50:19.894Z,4.10
2023-02-19T18:52:47.546Z,3.83
2023-02-19T18:55:15.263Z,3.80
2023-02-19T18:57:42.848Z,3.78
2023-02-19T19:00:20.178Z,3.38
2023-02-19T19:02:50.559Z,3.25
2023-02-19T19:05:22.985Z,3.28
2023-02-19T19:10:21.259Z,3.03
2023-02-19T19:12:49.178Z,3.22
2023-02-19T19:15:18.581Z,3.33
2023-02-19T19:17:48.571Z,3.40
2023-02-19T19:20:21.869Z,4.25
2023-02-19T19:22:51.940Z,4.40
2023-02-19T19:25:21.052Z,6.80
2023-02-19T19:27:50.773Z,7.82
2023-02-19T19:30:20.121Z,7.35
2023-02-19T19:32:52.617Z,7.63
2023-02-19T19:35:22.052Z,7.07
2023-02-19T19:37:49.752Z,6.28
2023-02-19T19:40:18.544Z,4.88
2023-02-19T19:42:46.871Z,4.20
2023-02-19T19:45:15.387Z,4.88
2023-02-19T19:47:43.154Z,4.13
2023-02-19T19:50:13.082Z,3.60
2023-02-19T19:52:40.703Z,3.85
2023-02-19T19:55:08.980Z,3.80
2023-02-19T19:57:38.493Z,4.10
2023-02-19T20:00:08.808Z,4.18
2023-02-19T20:02:42.071Z,4.47
2023-02-19T20:05:10.072Z,4.40
2023-02-19T20:07:37.767Z,4.53
2023-02-19T20:10:07.636Z,4.90
2023-02-19T20:12:35.214Z,5.28
2023-02-19T20:15:02.776Z,5.20
2023-02-19T20:17:30.274Z,5.25
2023-02-19T20:19:57.872Z,5.45
2023-02-19T20:22:25.479Z,5.38
2023-02-19T20:24:54.723Z,5.40
2023-02-19T20:27:23.785Z,5.80
2023-02-19T20:29:51.369Z,4.88
2023-02-19T20:32:18.909Z,5.03
2023-02-19T20:34:48.227Z,4.70
2023-02-19T20:37:15.833Z,4.82
2023-02-19T20:39:43.734Z,4.57
2023-02-19T20:42:11.324Z,4.28
2023-02-19T20:44:38.826Z,4.40
2023-02-19T20:47:06.363Z,4.80
2023-02-19T20:49:34.490Z,5.60
2023-02-19T20:52:07.021Z,4.93
2023-02-19T20:54:35.988Z,4.25
2023-02-19T20:57:05.733Z,4.30
2023-02-19T20:59:38.714Z,4.18
2023-02-19T21:02:14.023Z,4.00
2023-02-19T21:04:41.569Z,4.30
2023-02-19T21:07:09.248Z,3.80
2023-02-19T21:09:36.771Z,4.20
2023-02-19T21:12:04.600Z,3.72
2023-02-19T21:14:32.048Z,3.28
2023-02-19T21:16:59.715Z,3.95
2023-02-19T21:19:27.708Z,3.92
2023-02-19T21:21:55.182Z,3.65
2023-02-19T21:24:22.899Z,3.63
2023-02-19T21:26:50.432Z,3.72
2023-02-19T21:29:21.797Z,3.30
2023-02-19T21:31:54.498Z,3.53
2023-02-19T21:34:27.366Z,3.40
2023-02-19T21:36:56.837Z,3.17
2023-02-19T21:39:27.406Z,3.33
2023-02-19T21:41:55.047Z,3.58
2023-02-19T21:44:22.768Z,3.20
2023-02-19T21:46:50.927Z,3.38
2023-02-19T21:49:18.735Z,3.17
2023-02-19T21:51:48.588Z,3.00
2023-02-19T21:54:24.689Z,3.38
2023-02-19T21:56:53.565Z,3.13
2023-02-19T21:59:22.850Z,3.20
2023-02-19T22:01:50.737Z,3.38
2023-02-19T22:04:21.826Z,3.50
2023-02-19T22:06:49.393Z,3.40
2023-02-19T22:09:17.108Z,4.20
2023-02-19T22:11:44.591Z,3.55
2023-02-19T22:14:12.174Z,4.70
2023-02-19T22:16:39.786Z,4.25
2023-02-19T22:19:07.283Z,4.90
2023-02-19T22:21:35.906Z,5.13
2023-02-19T22:24:03.950Z,5.05
2023-02-19T22:26:34.810Z,5.07
2023-02-19T22:29:07.123Z,5.27
2023-02-19T22:31:35.828Z,5.70
2023-02-19T22:34:04.600Z,5.70
2023-02-19T22:36:34.215Z,6.13
2023-02-19T22:39:01.986Z,5.68
2023-02-19T22:41:29.657Z,6.40
2023-02-19T22:43:58.652Z,6.80
2023-02-19T22:46:31.234Z,7.05
2023-02-19T22:49:05.706Z,7.90
2023-02-19T22:51:35.559Z,8.27
2023-02-19T22:54:03.283Z,8.90
2023-02-19T22:56:31.123Z,9.75
2023-02-19T22:58:59.212Z,10.35
2023-02-19T23:01:26.847Z,10.35
2023-02-19T23:03:58.212Z,11.05
2023-02-19T23:06:36.068Z,11.70
2023-02-19T23:09:13.747Z,11.45
2023-02-19T23:11:41.397Z,11.88
2023-02-19T23:14:08.975Z,11.52
2023-02-19T23:16:36.760Z,12.02
2023-02-19T23:19:11.508Z,12.85
2023-02-19T23:21:41.870Z,11.98
2023-02-19T23:24:11.625Z,12.95
2023-02-19T23:26:52.781Z,12.88
2023-02-19T23:29:27.549Z,12.35
2023-02-19T23:31:55.372Z,13.48
2023-02-19T23:34:24.391Z,13.45
2023-02-19T23:36:52.376Z,12.93
2023-02-19T23:39:22.675Z,13.65
2023-02-19T23:41:55.716Z,12.02
2023-02-19T23:44:25.625Z,13.27
2023-02-19T23:46:53.299Z,13.27
2023-02-19T23:49:21.809Z,12.57
2023-02-19T23:51:49.442Z,13.32
2023-02-19T23:54:17.114Z,12.52
2023-02-19T23:56:44.814Z,13.32
2023-02-19T23:59:12.523Z,13.27
